VKG412 TJSJ-TFFJ
Flight info
| Callsign | VKG412 |
|---|---|
| Flight time | N/A |
| Altitude | 19000 |
| Route | SJU RTE2 COY/N0313F170 R760 PJM |
| Aircraft | B350/L-SBGRW/S |
Departure
| Time | 2026-05-05 16:49 |
|---|---|
| Airport | Luis Munoz Marin International Airport (TJSJ) |
Arrival
| Time | N/A |
|---|---|
| Airport | St. Jean Airport (TFFJ) |
| Time | Latitude | Longitude | Altitude | Speed | Heading |
|---|---|---|---|---|---|
| 2026-05-05 16:25 | 18.44130 | -66.00285 | 14 ft | 0 kts | 158° |
| 2026-05-05 16:36 | 18.44102 | -66.00347 | 14 ft | 0 kts | 155° |
| 2026-05-05 16:45 | 18.44105 | -66.00347 | 14 ft | 0 kts | 245° |
| 2026-05-05 16:45 | 18.44083 | -66.00314 | 14 ft | 11 kts | 49° |
| 2026-05-05 16:46 | 18.44133 | -66.00217 | 14 ft | 11 kts | 68° |
| 2026-05-05 16:46 | 18.44155 | -66.00182 | 14 ft | 12 kts | 3° |
| 2026-05-05 16:46 | 18.44209 | -66.00236 | 14 ft | 8 kts | 322° |
| 2026-05-05 16:46 | 18.44247 | -66.00244 | 14 ft | 2 kts | 14° |
| 2026-05-05 16:47 | 18.44279 | -66.00210 | 14 ft | 13 kts | 72° |
| 2026-05-05 16:47 | 18.44320 | -66.00095 | 14 ft | 19 kts | 69° |
| 2026-05-05 16:47 | 18.44357 | -66.00006 | 14 ft | 24 kts | 69° |
| 2026-05-05 16:47 | 18.44434 | -65.99823 | 14 ft | 34 kts | 67° |
| 2026-05-05 16:48 | 18.44529 | -65.99586 | 14 ft | 20 kts | 66° |
| 2026-05-05 16:48 | 18.44571 | -65.99484 | 14 ft | 12 kts | 66° |
| 2026-05-05 16:48 | 18.44620 | -65.99387 | 14 ft | 10 kts | 33° |
| 2026-05-05 16:48 | 18.44680 | -65.99487 | 14 ft | 32 kts | 248° |
| 2026-05-05 16:49 | 18.44444 | -66.00122 | 90 ft | 140 kts | 244° |
| 2026-05-05 16:49 | 18.44058 | -66.01183 | 896 ft | 163 kts | 242° |
| 2026-05-05 16:49 | 18.43256 | -66.01945 | 1912 ft | 162 kts | 186° |
| 2026-05-05 16:49 | 18.42258 | -66.01511 | 2408 ft | 152 kts | 128° |
| 2026-05-05 16:50 | 18.41980 | -66.00414 | 2618 ft | 173 kts | 92° |
| 2026-05-05 16:50 | 18.42277 | -65.99105 | 2763 ft | 195 kts | 70° |
| 2026-05-05 16:50 | 18.43086 | -65.97905 | 3111 ft | 205 kts | 57° |
| 2026-05-05 16:50 | 18.43974 | -65.96726 | 3457 ft | 205 kts | 58° |
| 2026-05-05 16:51 | 18.44864 | -65.95545 | 3817 ft | 207 kts | 58° |
| 2026-05-05 16:51 | 18.45763 | -65.94354 | 4176 ft | 208 kts | 56° |
| 2026-05-05 16:51 | 18.46649 | -65.93142 | 4543 ft | 209 kts | 57° |
| 2026-05-05 16:51 | 18.47330 | -65.91824 | 4937 ft | 202 kts | 77° |
| 2026-05-05 16:52 | 18.47736 | -65.90419 | 5291 ft | 200 kts | 78° |
| 2026-05-05 16:52 | 18.48072 | -65.88994 | 5657 ft | 201 kts | 83° |
| 2026-05-05 16:52 | 18.48225 | -65.87553 | 6023 ft | 201 kts | 88° |
| 2026-05-05 16:52 | 18.48340 | -65.86077 | 6392 ft | 203 kts | 89° |
| 2026-05-05 16:53 | 18.48458 | -65.84590 | 6744 ft | 205 kts | 90° |
| 2026-05-05 16:53 | 18.48567 | -65.83085 | 7090 ft | 207 kts | 89° |
| 2026-05-05 16:53 | 18.48662 | -65.81559 | 7441 ft | 210 kts | 89° |
| 2026-05-05 16:53 | 18.48661 | -65.80012 | 7698 ft | 216 kts | 97° |
| 2026-05-05 16:54 | 18.48537 | -65.78385 | 7701 ft | 229 kts | 98° |
| 2026-05-05 16:54 | 18.48373 | -65.76687 | 7708 ft | 237 kts | 99° |
| 2026-05-05 16:54 | 18.48178 | -65.74949 | 7713 ft | 241 kts | 100° |
| 2026-05-05 16:54 | 18.47974 | -65.73190 | 7721 ft | 243 kts | 100° |
| 2026-05-05 16:55 | 18.47782 | -65.71450 | 7950 ft | 236 kts | 100° |
| 2026-05-05 16:55 | 18.47610 | -65.69743 | 8192 ft | 233 kts | 98° |
| 2026-05-05 16:55 | 18.47432 | -65.68053 | 8433 ft | 232 kts | 99° |
| 2026-05-05 16:55 | 18.47247 | -65.66365 | 8675 ft | 228 kts | 98° |
| 2026-05-05 16:56 | 18.47077 | -65.64715 | 8919 ft | 240 kts | 99° |
| 2026-05-05 16:56 | 18.46879 | -65.62895 | 9170 ft | 251 kts | 99° |
| 2026-05-05 16:56 | 18.46683 | -65.61134 | 9418 ft | 235 kts | 99° |
| 2026-05-05 16:56 | 18.46503 | -65.59455 | 9664 ft | 227 kts | 99° |
| 2026-05-05 16:57 | 18.46339 | -65.57818 | 9912 ft | 223 kts | 100° |
| 2026-05-05 16:57 | 18.46186 | -65.56203 | 10140 ft | 221 kts | 99° |
| 2026-05-05 16:57 | 18.46034 | -65.54587 | 10365 ft | 223 kts | 100° |
| 2026-05-05 16:57 | 18.45862 | -65.52902 | 10593 ft | 245 kts | 99° |
| 2026-05-05 16:58 | 18.45688 | -65.51373 | 10788 ft | 257 kts | 100° |